sensor_id;sensor_type;location;lat;lon;timestamp;pressure;altitude;pressure_sealevel;temperature;humidity
63665;BME280;49820;33.966;73.390;2023-02-22T00:01:06;78788.00;;;3.34;74.63
63665;BME280;49820;33.966;73.390;2023-02-22T00:03:50;78782.06;;;3.28;76.16
63665;BME280;49820;33.966;73.390;2023-02-22T00:06:21;78782.06;;;3.20;77.58
63665;BME280;49820;33.966;73.390;2023-02-22T00:08:53;78765.59;;;2.87;78.83
63665;BME280;49820;33.966;73.390;2023-02-22T00:11:24;78763.63;;;2.91;79.66
63665;BME280;49820;33.966;73.390;2023-02-22T00:13:54;78768.88;;;2.93;79.33
63665;BME280;49820;33.966;73.390;2023-02-22T00:16:25;78770.88;;;2.97;80.00
63665;BME280;49820;33.966;73.390;2023-02-22T00:18:55;78788.03;;;3.00;81.29
63665;BME280;49820;33.966;73.390;2023-02-22T00:21:24;78776.78;;;2.87;81.03
63665;BME280;49820;33.966;73.390;2023-02-22T00:23:53;78786.03;;;2.96;82.31
63665;BME280;49820;33.966;73.390;2023-02-22T00:26:22;78754.38;;;2.64;83.05
63665;BME280;49820;33.966;73.390;2023-02-22T00:28:52;78750.38;;;2.53;84.08
63665;BME280;49820;33.966;73.390;2023-02-22T00:31:23;78759.63;;;2.76;83.76
63665;BME280;49820;33.966;73.390;2023-02-22T00:33:52;78743.81;;;2.64;84.30
63665;BME280;49820;33.966;73.390;2023-02-22T00:36:22;78773.50;;;2.83;85.11
63665;BME280;49820;33.966;73.390;2023-02-22T00:38:52;78762.28;;;2.66;84.15
63665;BME280;49820;33.966;73.390;2023-02-22T00:41:21;78758.97;;;2.59;84.67
63665;BME280;49820;33.966;73.390;2023-02-22T00:43:50;78781.41;;;2.87;84.23
63665;BME280;49820;33.966;73.390;2023-02-22T00:46:19;78745.78;;;2.63;82.18
63665;BME280;49820;33.966;73.390;2023-02-22T00:48:47;78761.63;;;2.94;78.71
63665;BME280;49820;33.966;73.390;2023-02-22T00:51:17;78765.56;;;3.17;75.56
63665;BME280;49820;33.966;73.390;2023-02-22T00:53:45;78767.56;;;3.27;76.00
63665;BME280;49820;33.966;73.390;2023-02-22T00:56:14;78764.25;;;3.30;76.45
63665;BME280;49820;33.966;73.390;2023-02-22T00:58:43;78790.66;;;3.34;77.69
63665;BME280;49820;33.966;73.390;2023-02-22T01:01:13;78788.66;;;3.47;76.56
63665;BME280;49820;33.966;73.390;2023-02-22T01:03:42;78775.47;;;3.29;76.97
63665;BME280;49820;33.966;73.390;2023-02-22T01:06:11;78778.09;;;3.27;78.08
63665;BME280;49820;33.966;73.390;2023-02-22T01:08:43;78786.63;;;3.78;73.24
63665;BME280;49820;33.966;73.390;2023-02-22T01:11:16;78776.69;;;3.84;74.43
63665;BME280;49820;33.966;73.390;2023-02-22T01:13:47;78764.19;;;3.73;75.15
63665;BME280;49820;33.966;73.390;2023-02-22T01:16:19;78765.47;;;3.86;74.74
63665;BME280;49820;33.966;73.390;2023-02-22T01:18:48;78723.94;;;3.56;74.50
63665;BME280;49820;33.966;73.390;2023-02-22T01:21:17;78749.00;;;3.69;76.93
63665;BME280;49820;33.966;73.390;2023-02-22T01:23:46;78747.03;;;3.66;77.54
63665;BME280;49820;33.966;73.390;2023-02-22T01:26:15;78775.34;;;3.92;78.99
63665;BME280;49820;33.966;73.390;2023-02-22T01:28:46;78748.97;;;3.79;78.57
63665;BME280;49820;33.966;73.390;2023-02-22T01:31:15;78758.22;;;3.84;80.63
63665;BME280;49820;33.966;73.390;2023-02-22T01:33:45;78762.09;;;4.08;81.24
63665;BME280;49820;33.966;73.390;2023-02-22T01:36:13;78729.13;;;3.84;81.06
63665;BME280;49820;33.966;73.390;2023-02-22T01:38:42;78768.69;;;4.11;80.73
63665;BME280;49820;33.966;73.390;2023-02-22T01:41:12;78763.47;;;3.97;81.80
63665;BME280;49820;33.966;73.390;2023-02-22T01:43:42;78761.44;;;4.07;79.26
63665;BME280;49820;33.966;73.390;2023-02-22T01:46:23;78780.56;;;4.18;81.50
63665;BME280;49820;33.966;73.390;2023-02-22T01:49:01;78748.88;;;4.06;80.63
63665;BME280;49820;33.966;73.390;2023-02-22T01:51:37;78767.31;;;4.26;81.22
63665;BME280;49820;33.966;73.390;2023-02-22T01:57:07;78763.94;;;4.42;80.74
63665;BME280;49820;33.966;73.390;2023-02-22T01:59:44;78780.28;;;4.79;78.80
63665;BME280;49820;33.966;73.390;2023-02-22T02:02:15;78786.94;;;4.72;79.87
63665;BME280;49820;33.966;73.390;2023-02-22T02:04:47;78771.16;;;4.55;80.88
63665;BME280;49820;33.966;73.390;2023-02-22T02:07:18;78788.88;;;4.81;80.58
63665;BME280;49820;33.966;73.390;2023-02-22T02:10:00;78768.13;;;5.24;76.58
63665;BME280;49820;33.966;73.390;2023-02-22T02:12:34;78788.97;;;5.69;75.94
63665;BME280;49820;33.966;73.390;2023-02-22T02:48:19;78809.03;;;9.51;60.24
63665;BME280;49820;33.966;73.390;2023-02-22T02:50:50;78831.41;;;9.66;58.81
63665;BME280;49820;33.966;73.390;2023-02-22T02:53:43;78820.03;;;9.68;59.85
63665;BME280;49820;33.966;73.390;2023-02-22T02:56:14;78832.09;;;9.98;58.18
63665;BME280;49820;33.966;73.390;2023-02-22T02:58:48;78833.66;;;10.21;58.63
63665;BME280;49820;33.966;73.390;2023-02-22T03:04:19;78852.06;;;10.93;54.50
63665;BME280;49820;33.966;73.390;2023-02-22T03:18:08;78878.19;;;12.25;53.60
63665;BME280;49820;33.966;73.390;2023-02-22T03:21:06;78885.34;;;12.33;51.65
63665;BME280;49820;33.966;73.390;2023-02-22T03:24:05;78884.78;;;12.78;51.81
63665;BME280;49820;33.966;73.390;2023-02-22T03:26:47;78891.31;;;12.83;49.83
63665;BME280;49820;33.966;73.390;2023-02-22T03:29:20;78894.00;;;13.06;51.01
63665;BME280;49820;33.966;73.390;2023-02-22T03:31:57;78907.78;;;12.93;50.14
63665;BME280;49820;33.966;73.390;2023-02-22T03:34:41;78894.22;;;12.75;50.26
63665;BME280;49820;33.966;73.390;2023-02-22T03:37:28;78892.03;;;12.81;50.64
63665;BME280;49820;33.966;73.390;2023-02-22T03:40:03;78894.13;;;12.79;51.02
63665;BME280;49820;33.966;73.390;2023-02-22T03:42:48;78892.25;;;13.21;49.80
63665;BME280;49820;33.966;73.390;2023-02-22T03:45:23;78893.97;;;13.30;49.56
63665;BME280;49820;33.966;73.390;2023-02-22T03:48:05;78913.94;;;13.58;50.10
63665;BME280;49820;33.966;73.390;2023-02-22T03:50:38;78894.78;;;13.48;50.70
63665;BME280;49820;33.966;73.390;2023-02-22T03:53:07;78928.50;;;13.86;48.89
63665;BME280;49820;33.966;73.390;2023-02-22T03:55:40;78919.84;;;13.84;47.37
63665;BME280;49820;33.966;73.390;2023-02-22T03:58:12;78908.06;;;13.95;47.75
63665;BME280;49820;33.966;73.390;2023-02-22T04:00:41;78928.69;;;14.22;47.55
63665;BME280;49820;33.966;73.390;2023-02-22T04:03:11;78919.78;;;13.86;47.75
63665;BME280;49820;33.966;73.390;2023-02-22T04:05:40;78936.81;;;13.99;46.55
63665;BME280;49820;33.966;73.390;2023-02-22T04:08:10;78933.16;;;14.08;46.72
63665;BME280;49820;33.966;73.390;2023-02-22T04:10:39;78947.97;;;14.07;47.79
63665;BME280;49820;33.966;73.390;2023-02-22T04:13:09;78933.13;;;13.88;47.36
63665;BME280;49820;33.966;73.390;2023-02-22T04:15:43;78923.91;;;13.62;49.09
63665;BME280;49820;33.966;73.390;2023-02-22T04:18:12;78946.97;;;13.96;49.82
63665;BME280;49820;33.966;73.390;2023-02-22T04:20:44;78963.28;;;13.90;49.32
63665;BME280;49820;33.966;73.390;2023-02-22T04:23:22;78957.44;;;13.84;48.59
63665;BME280;49820;33.966;73.390;2023-02-22T04:25:53;78962.72;;;13.42;49.28
63665;BME280;49820;33.966;73.390;2023-02-22T04:28:23;78976.84;;;13.63;48.30
63665;BME280;49820;33.966;73.390;2023-02-22T04:31:02;78962.69;;;13.88;49.35
63665;BME280;49820;33.966;73.390;2023-02-22T04:33:32;78979.84;;;13.76;49.48
63665;BME280;49820;33.966;73.390;2023-02-22T04:36:00;78971.47;;;13.63;49.23
63665;BME280;49820;33.966;73.390;2023-02-22T04:38:33;78973.16;;;13.29;49.90
63665;BME280;49820;33.966;73.390;2023-02-22T04:41:03;78968.66;;;13.22;50.31
63665;BME280;49820;33.966;73.390;2023-02-22T04:43:32;78968.03;;;13.21;52.97
63665;BME280;49820;33.966;73.390;2023-02-22T04:46:11;78957.78;;;13.03;53.67
63665;BME280;49820;33.966;73.390;2023-02-22T04:48:41;78966.16;;;12.91;54.53
63665;BME280;49820;33.966;73.390;2023-02-22T04:51:10;78956.66;;;12.96;54.26
63665;BME280;49820;33.966;73.390;2023-02-22T04:53:49;78969.44;;;12.93;54.50
63665;BME280;49820;33.966;73.390;2023-02-22T04:56:19;78957.97;;;12.72;54.92
63665;BME280;49820;33.966;73.390;2023-02-22T04:58:48;78974.53;;;13.04;54.61
63665;BME280;49820;33.966;73.390;2023-02-22T05:01:18;78979.03;;;12.86;55.95
63665;BME280;49820;33.966;73.390;2023-02-22T05:03:48;78969.03;;;12.85;54.11
63665;BME280;49820;33.966;73.390;2023-02-22T05:06:17;78975.00;;;12.87;53.95
63665;BME280;49820;33.966;73.390;2023-02-22T05:08:46;78967.81;;;12.80;53.80
63665;BME280;49820;33.966;73.390;2023-02-22T05:11:15;78968.97;;;12.87;54.14
63665;BME280;49820;33.966;73.390;2023-02-22T05:13:44;78968.47;;;12.80;55.67
63665;BME280;49820;33.966;73.390;2023-02-22T05:16:14;78962.06;;;12.69;53.76
63665;BME280;49820;33.966;73.390;2023-02-22T05:18:43;78957.69;;;12.57;53.34
63665;BME280;49820;33.966;73.390;2023-02-22T05:21:12;78978.59;;;13.03;54.11
63665;BME280;49820;33.966;73.390;2023-02-22T05:23:42;78958.78;;;13.16;53.11
63665;BME280;49820;33.966;73.390;2023-02-22T05:26:11;78958.50;;;13.02;52.87
63665;BME280;49820;33.966;73.390;2023-02-22T05:28:40;78961.41;;;13.18;53.78
63665;BME280;49820;33.966;73.390;2023-02-22T05:31:09;78964.63;;;13.68;54.18
63665;BME280;49820;33.966;73.390;2023-02-22T05:33:38;78965.88;;;13.49;51.06
63665;BME280;49820;33.966;73.390;2023-02-22T05:36:08;78977.81;;;12.81;53.00
63665;BME280;49820;33.966;73.390;2023-02-22T05:38:38;78939.38;;;11.61;54.03
63665;BME280;49820;33.966;73.390;2023-02-22T05:41:11;78942.44;;;11.44;55.51
63665;BME280;49820;33.966;73.390;2023-02-22T05:43:41;78956.53;;;12.50;54.32
63665;BME280;49820;33.966;73.390;2023-02-22T05:46:10;78958.22;;;13.80;51.95
63665;BME280;49820;33.966;73.390;2023-02-22T05:48:41;78978.84;;;14.29;52.14
63665;BME280;49820;33.966;73.390;2023-02-22T05:51:10;78965.31;;;13.90;50.59
63665;BME280;49820;33.966;73.390;2023-02-22T05:53:39;78981.03;;;13.11;50.24
63665;BME280;49820;33.966;73.390;2023-02-22T05:56:09;78946.88;;;12.86;52.20
63665;BME280;49820;33.966;73.390;2023-02-22T05:58:39;78977.22;;;13.28;51.76
63665;BME280;49820;33.966;73.390;2023-02-22T06:01:08;78969.03;;;13.55;50.66
63665;BME280;49820;33.966;73.390;2023-02-22T06:03:37;78977.56;;;14.05;49.10
63665;BME280;49820;33.966;73.390;2023-02-22T06:06:06;78963.59;;;14.65;48.17
63665;BME280;49820;33.966;73.390;2023-02-22T06:08:37;78950.94;;;14.62;47.06
63665;BME280;49820;33.966;73.390;2023-02-22T06:11:05;78962.53;;;14.56;46.03
63665;BME280;49820;33.966;73.390;2023-02-22T06:13:37;78958.97;;;13.99;46.79
63665;BME280;49820;33.966;73.390;2023-02-22T06:16:07;78978.47;;;13.07;47.93
63665;BME280;49820;33.966;73.390;2023-02-22T06:18:36;78984.28;;;12.90;50.82
63665;BME280;49820;33.966;73.390;2023-02-22T06:21:07;78967.03;;;14.82;48.56
63665;BME280;49820;33.966;73.390;2023-02-22T06:23:36;78963.63;;;16.51;43.33
63665;BME280;49820;33.966;73.390;2023-02-22T06:26:05;78959.38;;;17.06;39.79
63665;BME280;49820;33.966;73.390;2023-02-22T06:28:35;78950.28;;;16.47;41.87
63665;BME280;49820;33.966;73.390;2023-02-22T06:31:04;78938.69;;;16.50;41.44
63665;BME280;49820;33.966;73.390;2023-02-22T06:33:33;78968.75;;;17.40;40.56
63665;BME280;49820;33.966;73.390;2023-02-22T06:36:01;78960.41;;;17.46;39.78
63665;BME280;49820;33.966;73.390;2023-02-22T06:38:31;78963.50;;;16.19;40.77
63665;BME280;49820;33.966;73.390;2023-02-22T06:41:00;78953.34;;;15.65;41.24
63665;BME280;49820;33.966;73.390;2023-02-22T06:43:30;78950.72;;;15.07;43.23
63665;BME280;49820;33.966;73.390;2023-02-22T06:45:59;78964.84;;;15.26;43.03
63665;BME280;49820;33.966;73.390;2023-02-22T06:48:28;78957.31;;;14.92;44.06
63665;BME280;49820;33.966;73.390;2023-02-22T06:50:57;78958.66;;;15.49;45.08
63665;BME280;49820;33.966;73.390;2023-02-22T06:53:26;78976.31;;;14.67;45.49
63665;BME280;49820;33.966;73.390;2023-02-22T06:55:56;78964.91;;;14.45;46.53
63665;BME280;49820;33.966;73.390;2023-02-22T06:58:25;78939.47;;;15.40;45.48
63665;BME280;49820;33.966;73.390;2023-02-22T07:00:54;78910.03;;;14.59;45.05
63665;BME280;49820;33.966;73.390;2023-02-22T07:03:23;78942.59;;;15.65;43.78
63665;BME280;49820;33.966;73.390;2023-02-22T07:05:52;78954.97;;;15.58;43.18
63665;BME280;49820;33.966;73.390;2023-02-22T07:08:22;78947.31;;;15.46;43.68
63665;BME280;49820;33.966;73.390;2023-02-22T07:10:51;78953.56;;;15.22;44.31
63665;BME280;49820;33.966;73.390;2023-02-22T07:13:21;78954.13;;;15.24;45.54
63665;BME280;49820;33.966;73.390;2023-02-22T07:15:50;78950.28;;;14.61;44.89
63665;BME280;49820;33.966;73.390;2023-02-22T07:18:19;78921.25;;;15.03;45.74
63665;BME280;49820;33.966;73.390;2023-02-22T07:20:47;78921.06;;;15.28;44.03
63665;BME280;49820;33.966;73.390;2023-02-22T07:23:17;78934.66;;;15.43;44.19
63665;BME280;49820;33.966;73.390;2023-02-22T07:25:46;78922.78;;;15.17;44.57
63665;BME280;49820;33.966;73.390;2023-02-22T07:28:15;78927.41;;;14.41;46.13
63665;BME280;49820;33.966;73.390;2023-02-22T07:30:44;78928.00;;;14.02;46.80
63665;BME280;49820;33.966;73.390;2023-02-22T07:33:15;78933.69;;;14.13;47.05
63665;BME280;49820;33.966;73.390;2023-02-22T07:35:48;78943.19;;;14.31;46.01
63665;BME280;49820;33.966;73.390;2023-02-22T07:38:18;78939.88;;;14.91;47.22
63665;BME280;49820;33.966;73.390;2023-02-22T07:40:49;78922.47;;;14.87;47.46
63665;BME280;49820;33.966;73.390;2023-02-22T07:43:21;78930.06;;;14.83;40.00
63665;BME280;49820;33.966;73.390;2023-02-22T07:45:54;78936.88;;;14.80;45.95
63665;BME280;49820;33.966;73.390;2023-02-22T07:48:26;78911.25;;;14.62;45.91
63665;BME280;49820;33.966;73.390;2023-02-22T07:50:56;78930.50;;;16.35;45.57
63665;BME280;49820;33.966;73.390;2023-02-22T07:53:29;78933.66;;;16.75;43.38
63665;BME280;49820;33.966;73.390;2023-02-22T07:56:01;78936.09;;;18.53;42.56
63665;BME280;49820;33.966;73.390;2023-02-22T07:58:31;78936.75;;;17.78;35.68
63665;BME280;49820;33.966;73.390;2023-02-22T08:01:00;78930.69;;;18.39;40.20
63665;BME280;49820;33.966;73.390;2023-02-22T08:03:32;78945.72;;;18.80;39.28
63665;BME280;49820;33.966;73.390;2023-02-22T08:06:06;78936.47;;;18.60;38.87
63665;BME280;49820;33.966;73.390;2023-02-22T08:08:35;78924.78;;;18.05;41.81
63665;BME280;49820;33.966;73.390;2023-02-22T08:11:04;78913.16;;;18.38;37.57
63665;BME280;49820;33.966;73.390;2023-02-22T08:13:34;78916.22;;;17.37;35.70
63665;BME280;49820;33.966;73.390;2023-02-22T08:16:04;78908.97;;;16.69;36.27
63665;BME280;49820;33.966;73.390;2023-02-22T08:18:33;78914.84;;;15.88;40.19
63665;BME280;49820;33.966;73.390;2023-02-22T08:21:05;78910.72;;;15.35;44.66
63665;BME280;49820;33.966;73.390;2023-02-22T08:23:34;78924.03;;;15.39;41.79
63665;BME280;49820;33.966;73.390;2023-02-22T08:26:09;78919.06;;;14.89;40.30
63665;BME280;49820;33.966;73.390;2023-02-22T08:28:38;78916.59;;;14.83;43.89
63665;BME280;49820;33.966;73.390;2023-02-22T08:31:07;78898.19;;;15.46;44.97
63665;BME280;49820;33.966;73.390;2023-02-22T08:33:36;78921.28;;;15.59;41.39
63665;BME280;49820;33.966;73.390;2023-02-22T08:36:05;78903.09;;;15.22;42.55
63665;BME280;49820;33.966;73.390;2023-02-22T08:38:34;78911.66;;;15.27;44.96
63665;BME280;49820;33.966;73.390;2023-02-22T08:41:04;78898.41;;;15.58;44.63
63665;BME280;49820;33.966;73.390;2023-02-22T08:43:34;78914.38;;;15.81;45.28
63665;BME280;49820;33.966;73.390;2023-02-22T08:46:03;78904.63;;;15.55;41.42
63665;BME280;49820;33.966;73.390;2023-02-22T08:48:32;78890.03;;;15.67;43.99
63665;BME280;49820;33.966;73.390;2023-02-22T08:51:02;78890.72;;;15.48;43.17
63665;BME280;49820;33.966;73.390;2023-02-22T08:53:32;78903.91;;;15.56;43.51
63665;BME280;49820;33.966;73.390;2023-02-22T08:56:01;78891.50;;;15.45;42.49
63665;BME280;49820;33.966;73.390;2023-02-22T08:58:30;78897.50;;;17.65;45.51
63665;BME280;49820;33.966;73.390;2023-02-22T09:00:58;78893.41;;;16.53;41.10
63665;BME280;49820;33.966;73.390;2023-02-22T09:03:27;78887.25;;;15.14;43.54
63665;BME280;49820;33.966;73.390;2023-02-22T09:05:56;78893.06;;;15.21;44.06
63665;BME280;49820;33.966;73.390;2023-02-22T09:08:26;78889.63;;;15.22;45.97
63665;BME280;49820;33.966;73.390;2023-02-22T09:10:55;78892.44;;;14.62;48.37
63665;BME280;49820;33.966;73.390;2023-02-22T09:13:24;78890.47;;;14.61;45.15
63665;BME280;49820;33.966;73.390;2023-02-22T09:15:53;78897.91;;;15.16;46.28
63665;BME280;49820;33.966;73.390;2023-02-22T09:18:22;78876.19;;;15.04;44.14
63665;BME280;49820;33.966;73.390;2023-02-22T09:20:57;78895.81;;;15.19;44.05
63665;BME280;49820;33.966;73.390;2023-02-22T09:23:26;78884.16;;;14.68;44.63
63665;BME280;49820;33.966;73.390;2023-02-22T09:25:56;78881.69;;;15.91;45.44
63665;BME280;49820;33.966;73.390;2023-02-22T09:28:27;78877.72;;;16.40;44.04
63665;BME280;49820;33.966;73.390;2023-02-22T09:30:56;78874.28;;;17.24;41.63
63665;BME280;49820;33.966;73.390;2023-02-22T09:33:26;78874.94;;;16.76;40.06
63665;BME280;49820;33.966;73.390;2023-02-22T09:35:55;78861.84;;;16.83;42.27
63665;BME280;49820;33.966;73.390;2023-02-22T09:38:24;78861.94;;;17.12;43.43
63665;BME280;49820;33.966;73.390;2023-02-22T09:41:06;78874.09;;;17.28;38.89
63665;BME280;49820;33.966;73.390;2023-02-22T09:46:35;78871.09;;;16.21;41.00
63665;BME280;49820;33.966;73.390;2023-02-22T09:54:35;78873.53;;;17.57;38.20
63665;BME280;49820;33.966;73.390;2023-02-22T09:57:09;78859.91;;;17.90;38.29
63665;BME280;49820;33.966;73.390;2023-02-22T10:00:04;78856.53;;;18.19;39.74
63665;BME280;49820;33.966;73.390;2023-02-22T10:05:24;78844.66;;;18.56;38.12
63665;BME280;49820;33.966;73.390;2023-02-22T10:08:16;78860.75;;;18.87;37.73
63665;BME280;49820;33.966;73.390;2023-02-22T10:10:52;78856.22;;;18.69;38.37
63665;BME280;49820;33.966;73.390;2023-02-22T10:13:34;78861.44;;;16.93;40.06
63665;BME280;49820;33.966;73.390;2023-02-22T10:22:00;78862.53;;;14.91;46.17
63665;BME280;49820;33.966;73.390;2023-02-22T10:24:58;78858.94;;;15.15;42.83
63665;BME280;49820;33.966;73.390;2023-02-22T10:27:32;78858.41;;;15.48;41.17
63665;BME280;49820;33.966;73.390;2023-02-22T10:30:29;78863.00;;;14.77;41.06
63665;BME280;49820;33.966;73.390;2023-02-22T10:33:20;78854.50;;;15.26;40.95
63665;BME280;49820;33.966;73.390;2023-02-22T10:35:51;78852.50;;;15.44;41.26
63665;BME280;49820;33.966;73.390;2023-02-22T10:38:24;78866.38;;;16.05;43.62
63665;BME280;49820;33.966;73.390;2023-02-22T10:41:13;78851.25;;;17.41;39.16
63665;BME280;49820;33.966;73.390;2023-02-22T10:43:47;78856.44;;;17.77;40.18
63665;BME280;49820;33.966;73.390;2023-02-22T10:46:20;78859.03;;;18.67;40.58
63665;BME280;49820;33.966;73.390;2023-02-22T10:48:53;78846.69;;;19.12;38.87
63665;BME280;49820;33.966;73.390;2023-02-22T10:51:23;78857.53;;;18.97;40.30
63665;BME280;49820;33.966;73.390;2023-02-22T10:54:24;78865.41;;;17.57;38.71
63665;BME280;49820;33.966;73.390;2023-02-22T10:56:55;78861.34;;;18.75;43.27
63665;BME280;49820;33.966;73.390;2023-02-22T10:59:27;78832.03;;;19.34;40.41
63665;BME280;49820;33.966;73.390;2023-02-22T11:01:57;78851.34;;;18.86;40.64
63665;BME280;49820;33.966;73.390;2023-02-22T11:04:47;78825.63;;;19.00;40.31
63665;BME280;49820;33.966;73.390;2023-02-22T11:07:26;78831.09;;;18.85;41.38
63665;BME280;49820;33.966;73.390;2023-02-22T11:09:58;78846.97;;;19.61;39.67
63665;BME280;49820;33.966;73.390;2023-02-22T11:12:36;78844.69;;;19.53;40.66
63665;BME280;49820;33.966;73.390;2023-02-22T11:17:46;78852.13;;;18.41;42.11
63665;BME280;49820;33.966;73.390;2023-02-22T11:20:36;78858.44;;;18.79;40.41
63665;BME280;49820;33.966;73.390;2023-02-22T11:23:07;78855.09;;;19.06;40.79
63665;BME280;49820;33.966;73.390;2023-02-22T11:25:39;78854.84;;;19.25;39.73
63665;BME280;49820;33.966;73.390;2023-02-22T11:28:25;78858.41;;;19.49;40.61
63665;BME280;49820;33.966;73.390;2023-02-22T11:31:25;78861.22;;;18.92;38.85
63665;BME280;49820;33.966;73.390;2023-02-22T11:33:59;78857.53;;;18.70;41.09
63665;BME280;49820;33.966;73.390;2023-02-22T11:36:34;78870.06;;;19.05;39.67
63665;BME280;49820;33.966;73.390;2023-02-22T11:39:27;78858.56;;;18.33;41.60
63665;BME280;49820;33.966;73.390;2023-02-22T11:41:59;78857.56;;;17.82;41.90
63665;BME280;49820;33.966;73.390;2023-02-22T11:44:41;78862.06;;;17.56;42.44
63665;BME280;49820;33.966;73.390;2023-02-22T11:47:12;78858.63;;;16.95;44.79
63665;BME280;49820;33.966;73.390;2023-02-22T11:49:44;78861.19;;;16.15;45.56
63665;BME280;49820;33.966;73.390;2023-02-22T11:52:36;78862.13;;;16.76;43.82
63665;BME280;49820;33.966;73.390;2023-02-22T11:55:24;78864.97;;;16.56;43.39
63665;BME280;49820;33.966;73.390;2023-02-22T11:58:39;78881.38;;;15.99;43.32
63665;BME280;49820;33.966;73.390;2023-02-22T12:01:25;78876.03;;;15.08;45.60
63665;BME280;49820;33.966;73.390;2023-02-22T12:04:23;78891.31;;;15.13;48.15
63665;BME280;49820;33.966;73.390;2023-02-22T12:16:16;78895.09;;;13.15;51.23
63665;BME280;49820;33.966;73.390;2023-02-22T12:21:25;78889.44;;;12.54;51.39
63665;BME280;49820;33.966;73.390;2023-02-22T12:24:05;78903.78;;;12.20;54.00
63665;BME280;49820;33.966;73.390;2023-02-22T12:26:39;78900.13;;;11.80;52.94
63665;BME280;49820;33.966;73.390;2023-02-22T12:32:26;78909.03;;;11.43;51.82
63665;BME280;49820;33.966;73.390;2023-02-22T12:35:41;78919.41;;;11.00;55.40
63665;BME280;49820;33.966;73.390;2023-02-22T12:41:17;78927.84;;;10.49;55.91
63665;BME280;49820;33.966;73.390;2023-02-22T12:44:05;78931.63;;;10.27;57.13
63665;BME280;49820;33.966;73.390;2023-02-22T12:46:40;78924.31;;;9.90;55.52
63665;BME280;49820;33.966;73.390;2023-02-22T12:55:03;78940.56;;;9.39;58.02
63665;BME280;49820;33.966;73.390;2023-02-22T13:00:48;78938.34;;;9.13;58.44
63665;BME280;49820;33.966;73.390;2023-02-22T13:03:37;78952.81;;;8.83;59.55
63665;BME280;49820;33.966;73.390;2023-02-22T13:12:14;78954.84;;;8.33;61.61
63665;BME280;49820;33.966;73.390;2023-02-22T13:20:06;78964.59;;;7.96;62.22
63665;BME280;49820;33.966;73.390;2023-02-22T13:23:02;78968.00;;;7.90;61.96
63665;BME280;49820;33.966;73.390;2023-02-22T13:25:43;78951.03;;;7.63;61.95
63665;BME280;49820;33.966;73.390;2023-02-22T13:33:57;78972.44;;;7.51;62.29
63665;BME280;49820;33.966;73.390;2023-02-22T13:36:36;78978.53;;;7.41;62.31
63665;BME280;49820;33.966;73.390;2023-02-22T13:47:59;78976.81;;;7.11;62.44
63665;BME280;49820;33.966;73.390;2023-02-22T13:53:27;78963.84;;;6.77;62.51
63665;BME280;49820;33.966;73.390;2023-02-22T13:56:00;78990.94;;;6.94;62.30
63665;BME280;49820;33.966;73.390;2023-02-22T13:58:29;78980.38;;;6.85;62.35
63665;BME280;49820;33.966;73.390;2023-02-22T14:00:58;78994.97;;;6.84;62.71
63665;BME280;49820;33.966;73.390;2023-02-22T14:03:37;78990.41;;;6.79;62.69
63665;BME280;49820;33.966;73.390;2023-02-22T14:06:37;78993.09;;;6.71;63.61
63665;BME280;49820;33.966;73.390;2023-02-22T14:09:15;79005.03;;;6.74;63.51
63665;BME280;49820;33.966;73.390;2023-02-22T14:11:48;78997.06;;;6.74;64.34
63665;BME280;49820;33.966;73.390;2023-02-22T14:14:24;79000.16;;;7.01;64.58
63665;BME280;49820;33.966;73.390;2023-02-22T14:17:26;78996.09;;;7.08;64.93
63665;BME280;49820;33.966;73.390;2023-02-22T14:20:01;78984.28;;;6.97;63.77
63665;BME280;49820;33.966;73.390;2023-02-22T14:22:31;79003.31;;;7.21;59.32
63665;BME280;49820;33.966;73.390;2023-02-22T14:25:01;78975.56;;;7.04;59.86
63665;BME280;49820;33.966;73.390;2023-02-22T14:27:40;79008.66;;;7.15;59.53
63665;BME280;49820;33.966;73.390;2023-02-22T14:30:30;78993.53;;;6.98;61.80
63665;BME280;49820;33.966;73.390;2023-02-22T14:33:01;79016.63;;;7.15;62.26
63665;BME280;49820;33.966;73.390;2023-02-22T14:35:39;79025.28;;;7.14;62.09
63665;BME280;49820;33.966;73.390;2023-02-22T14:38:18;78985.09;;;6.79;61.66
63665;BME280;49820;33.966;73.390;2023-02-22T14:40:50;78983.25;;;6.57;62.63
63665;BME280;49820;33.966;73.390;2023-02-22T14:43:22;79016.50;;;6.46;63.34
63665;BME280;49820;33.966;73.390;2023-02-22T14:45:58;79018.56;;;6.39;62.78
63665;BME280;49820;33.966;73.390;2023-02-22T14:51:22;79022.69;;;6.16;64.45
63665;BME280;49820;33.966;73.390;2023-02-22T14:54:05;79017.47;;;5.86;66.81
63665;BME280;49820;33.966;73.390;2023-02-22T14:56:52;79005.63;;;5.68;66.62
63665;BME280;49820;33.966;73.390;2023-02-22T14:59:25;78993.03;;;5.71;67.01
63665;BME280;49820;33.966;73.390;2023-02-22T15:02:24;79014.72;;;6.10;68.38
63665;BME280;49820;33.966;73.390;2023-02-22T15:04:55;79017.38;;;6.10;69.36
63665;BME280;49820;33.966;73.390;2023-02-22T15:07:28;79015.38;;;6.15;70.17
63665;BME280;49820;33.966;73.390;2023-02-22T15:10:23;78997.56;;;5.99;70.11
63665;BME280;49820;33.966;73.390;2023-02-22T15:13:01;79003.50;;;6.07;70.14
63665;BME280;49820;33.966;73.390;2023-02-22T15:15:51;78985.03;;;5.83;71.37
63665;BME280;49820;33.966;73.390;2023-02-22T15:21:13;78995.63;;;5.89;70.74
63665;BME280;49820;33.966;73.390;2023-02-22T15:23:57;79011.41;;;6.09;68.83
63665;BME280;49820;33.966;73.390;2023-02-22T15:28:57;78999.63;;;5.76;68.69
63665;BME280;49820;33.966;73.390;2023-02-22T15:31:35;79005.56;;;5.89;67.72
63665;BME280;49820;33.966;73.390;2023-02-22T15:36:46;78988.38;;;5.78;66.33
63665;BME280;49820;33.966;73.390;2023-02-22T15:39:28;79024.69;;;6.09;66.83
63665;BME280;49820;33.966;73.390;2023-02-22T15:42:06;79019.41;;;6.01;67.52
63665;BME280;49820;33.966;73.390;2023-02-22T15:44:41;79035.38;;;5.97;66.73